This is the latest recevied weather packets stored in our database for station/object KC8VEU. If no packets are shown the sender has not sent any weather packets the latest 10 day(s).
| Time | Temp. | Humidity | Pressure | Rain* | Wind** | Luminosity | Snow |
|---|---|---|---|---|---|---|---|
| 1777736717 | 8.89° C | 39% | 1006.7 hPa | 0 mm | - | - | - |
| 1777727117 | 5° C | 49% | 1007.9 hPa | 0 mm | - | - | - |
| 1777725316 | 3.89° C | 53% | 1008.1 hPa | 0 mm | - | - | - |
| 1777723556 | 1.67° C | 59% | 1008.1 hPa | 0 mm | - | - | - |
| 1777716916 | -1.11° C | 65% | 1008.1 hPa | 0 mm | - | - | - |
| 1777713016 | -1.11° C | 65% | 1008.2 hPa | 0 mm | - | - | - |
| 1777710016 | -1.11° C | 65% | 1008.2 hPa | 0 mm | - | - | - |
| 1777709436 | -1.11° C | 65% | 1008.2 hPa | 0 mm | - | - | - |
| 1777708816 | -1.11° C | 64% | 1008.2 hPa | 0 mm | - | - | - |
| 1777707616 | -0.56° C | 62% | 1008.4 hPa | 0 mm | - | - | - |
| 1777707016 | -0.56° C | 63% | 1008.4 hPa | 0 mm | - | - | - |
| 1777704056 | -1.11° C | 64% | 1008.7 hPa | 0 mm | - | - | - |
| 1777703416 | -1.11° C | 64% | 1008.9 hPa | 0 mm | - | - | - |
| 1777702236 | -1.67° C | 66% | 1008.9 hPa | 0 mm | - | - | - |
| 1777696216 | -1.67° C | 73% | 1009.1 hPa | 0 mm | - | - | - |
| 1777693216 | -1.67° C | 72% | 1009.2 hPa | 0 mm | - | - | - |
| 1777686917 | 0° C | 64% | 1009.1 hPa | 0 mm | - | - | - |
| 1777685116 | 1.11° C | 61% | 1009 hPa | 0 mm | - | - | - |
| 1777684517 | 1.67° C | 60% | 1009 hPa | 0 mm | - | - | - |
| 1777683337 | 2.22° C | 55% | 1009.1 hPa | 0 mm | - | - | - |
| 1777682116 | 2.78° C | 54% | 1009 hPa | 0 mm | - | - | - |
| 1777672517 | 5.56° C | 47% | 1008.6 hPa | 0 mm | - | - | - |
| 1777671316 | 5° C | 46% | 1008.6 hPa | 0 mm | - | - | - |
| 1777668936 | 6.11° C | 45% | 1008.6 hPa | 0 mm | - | - | - |
| 1777667116 | 5.56° C | 45% | 1008.9 hPa | 0 mm | - | - | - |
* Rain latest hour (hover to see other rain measurements)
** Current wind speed in m/s (hover to see current wind gust speed)